createdAt,value
2022-12-28T00:02:58.670Z,70.19
2022-12-28T00:08:02.385Z,70.80
2022-12-28T00:13:05.606Z,70.69
2022-12-28T00:18:09.300Z,70.76
2022-12-28T00:23:12.365Z,70.36
2022-12-28T00:28:15.636Z,68.39
2022-12-28T00:33:19.136Z,69.01
2022-12-28T00:38:23.020Z,69.37
2022-12-28T00:43:27.792Z,70.06
2022-12-28T00:48:32.332Z,69.14
2022-12-28T00:53:36.287Z,70.29
2022-12-28T00:58:40.057Z,70.29
2022-12-28T01:03:43.489Z,71.12
2022-12-28T01:08:47.294Z,71.19
2022-12-28T01:13:52.745Z,70.02
2022-12-28T01:18:58.881Z,68.77
2022-12-28T01:24:05.035Z,68.38
2022-12-28T01:29:09.398Z,69.55
2022-12-28T01:34:13.450Z,71.17
2022-12-28T01:39:27.643Z,70.50
2022-12-28T01:44:44.239Z,69.72
2022-12-28T01:50:03.771Z,68.16
2022-12-28T01:55:17.435Z,68.45
2022-12-28T02:00:20.735Z,68.71
2022-12-28T02:05:30.136Z,68.65
2022-12-28T02:10:43.531Z,66.77
2022-12-28T02:15:49.721Z,67.49
2022-12-28T02:21:36.675Z,67.86
2022-12-28T02:27:00.230Z,66.70
2022-12-28T02:32:24.754Z,68.02
2022-12-28T02:37:32.375Z,68.25
2022-12-28T02:42:40.105Z,70.00
2022-12-28T02:48:03.824Z,70.05
2022-12-28T02:53:48.519Z,69.51
2022-12-28T02:59:10.521Z,69.60
2022-12-28T03:04:27.433Z,69.79
2022-12-28T03:09:51.386Z,69.08
2022-12-28T03:15:15.086Z,68.65
2022-12-28T03:20:43.651Z,69.33
2022-12-28T03:26:09.996Z,71.04
2022-12-28T03:31:23.974Z,69.87
2022-12-28T03:36:51.689Z,69.29
2022-12-28T03:42:40.706Z,69.33
2022-12-28T03:47:49.219Z,70.33
2022-12-28T03:52:52.942Z,69.04
2022-12-28T03:57:57.178Z,70.61
2022-12-28T04:03:04.322Z,70.47
2022-12-28T04:08:07.600Z,71.24
2022-12-28T04:13:10.884Z,70.87
2022-12-28T04:18:34.401Z,71.92
2022-12-28T04:23:38.017Z,72.50
2022-12-28T04:29:02.160Z,72.26
2022-12-28T04:34:26.299Z,71.66
2022-12-28T04:39:55.273Z,71.39
2022-12-28T04:44:58.949Z,71.73
2022-12-28T04:50:02.116Z,71.49
2022-12-28T04:55:06.689Z,70.94
2022-12-28T05:00:11.052Z,71.34
2022-12-28T05:05:14.370Z,71.82
2022-12-28T05:10:18.139Z,72.33
2022-12-28T05:15:22.242Z,72.36
2022-12-28T05:20:26.558Z,71.68
2022-12-28T05:25:32.850Z,72.72
2022-12-28T05:30:36.391Z,73.58
2022-12-28T05:35:39.488Z,72.85
2022-12-28T05:40:42.615Z,72.30
2022-12-28T05:45:46.211Z,71.99
2022-12-28T05:50:49.798Z,70.75
2022-12-28T05:55:53.501Z,71.36
2022-12-28T06:01:24.079Z,71.94
2022-12-28T06:06:28.077Z,72.78
2022-12-28T06:11:32.004Z,72.07
2022-12-28T06:16:38.357Z,73.03
2022-12-28T06:21:42.012Z,74.14
2022-12-28T06:26:45.512Z,74.35
2022-12-28T06:31:51.721Z,73.98
2022-12-28T06:36:57.090Z,73.71
2022-12-28T06:42:00.151Z,73.70
2022-12-28T06:47:03.753Z,74.12
2022-12-28T06:52:07.883Z,73.67
2022-12-28T06:57:11.055Z,73.60
2022-12-28T07:02:15.096Z,74.51
2022-12-28T07:07:18.261Z,74.03
2022-12-28T07:12:21.531Z,68.58
2022-12-28T07:17:24.763Z,51.05
2022-12-28T07:22:27.987Z,42.93
2022-12-28T07:27:31.344Z,38.55
2022-12-28T07:32:38.978Z,36.35
2022-12-28T07:37:42.548Z,33.96
2022-12-28T07:42:46.182Z,30.82
2022-12-28T07:47:50.121Z,29.14
2022-12-28T07:52:53.943Z,25.85
2022-12-28T07:57:57.753Z,25.08
2022-12-28T08:03:01.279Z,22.41
2022-12-28T08:08:04.447Z,21.75
2022-12-28T08:13:07.750Z,21.57
2022-12-28T08:18:10.864Z,23.71
2022-12-28T08:23:13.905Z,22.45
2022-12-28T08:28:17.079Z,22.11
2022-12-28T08:33:21.093Z,22.36
2022-12-28T08:38:27.186Z,22.60
2022-12-28T08:43:32.775Z,22.95
2022-12-28T08:48:36.366Z,25.59
2022-12-28T08:53:40.695Z,23.88
2022-12-28T08:58:45.993Z,27.07
2022-12-28T09:03:51.746Z,23.74
2022-12-28T09:09:05.318Z,21.63
2022-12-28T09:14:18.459Z,20.59
2022-12-28T09:19:23.888Z,20.89
2022-12-28T09:24:27.416Z,20.44
2022-12-28T09:29:33.183Z,20.14
2022-12-28T09:34:38.170Z,22.27
2022-12-28T09:39:42.029Z,21.61
2022-12-28T09:45:06.266Z,22.06
2022-12-28T09:50:12.543Z,22.67
2022-12-28T09:55:17.786Z,23.53
2022-12-28T10:00:39.388Z,22.62
2022-12-28T10:05:43.438Z,22.72
2022-12-28T10:10:49.289Z,22.19
2022-12-28T10:15:53.397Z,23.03
2022-12-28T10:20:57.310Z,22.76
2022-12-28T10:26:03.124Z,23.61
2022-12-28T10:31:11.891Z,24.56
2022-12-28T10:36:17.207Z,25.27
2022-12-28T10:41:22.181Z,26.17
2022-12-28T10:46:26.297Z,26.39
2022-12-28T10:51:30.893Z,26.54
2022-12-28T10:56:49.091Z,26.08
2022-12-28T11:01:52.450Z,29.13
2022-12-28T11:07:01.473Z,28.14
2022-12-28T11:12:25.667Z,31.72
2022-12-28T11:17:34.708Z,27.79
2022-12-28T11:22:38.460Z,26.20
2022-12-28T11:27:42.211Z,29.31
2022-12-28T11:32:55.701Z,29.93
2022-12-28T11:38:04.551Z,28.88
2022-12-28T11:43:31.011Z,28.29
2022-12-28T11:48:56.780Z,28.44
2022-12-28T11:54:23.303Z,30.31
2022-12-28T11:59:31.721Z,30.43
2022-12-28T12:04:46.591Z,28.03
2022-12-28T12:10:16.243Z,29.19
2022-12-28T12:15:25.272Z,29.01
2022-12-28T12:20:46.083Z,28.71
2022-12-28T12:25:54.604Z,29.88
2022-12-28T12:30:58.305Z,29.31
2022-12-28T12:36:18.466Z,30.12
2022-12-28T12:41:33.887Z,29.33
2022-12-28T12:47:03.702Z,29.88
2022-12-28T12:52:26.492Z,29.19
2022-12-28T12:58:02.462Z,28.45
2022-12-28T13:03:34.450Z,28.92
2022-12-28T13:08:48.304Z,26.98
2022-12-28T13:13:54.648Z,27.90
2022-12-28T13:19:02.568Z,28.23
2022-12-28T13:24:22.848Z,28.18
2022-12-28T13:29:39.411Z,28.36
2022-12-28T13:34:51.111Z,27.47
2022-12-28T13:40:11.501Z,27.43
2022-12-28T13:45:19.970Z,27.38
2022-12-28T13:50:29.132Z,26.03
2022-12-28T13:55:41.723Z,26.12
2022-12-28T14:00:48.376Z,26.02
2022-12-28T14:06:00.513Z,25.74
2022-12-28T14:11:05.728Z,26.34
2022-12-28T14:16:10.119Z,26.20
2022-12-28T14:21:14.114Z,26.09
2022-12-28T14:26:22.980Z,28.39
2022-12-28T14:31:32.128Z,30.66
2022-12-28T14:36:48.034Z,31.19
2022-12-28T14:41:51.825Z,32.55
2022-12-28T14:46:56.308Z,34.33
2022-12-28T14:52:09.647Z,41.33
2022-12-28T14:57:22.203Z,43.71
2022-12-28T15:02:41.472Z,47.25
2022-12-28T15:07:45.050Z,51.69
2022-12-28T15:12:48.474Z,52.11
2022-12-28T15:17:51.910Z,55.26
2022-12-28T15:22:55.428Z,54.72
2022-12-28T15:27:59.232Z,56.35
2022-12-28T15:33:02.446Z,58.22
2022-12-28T15:38:06.035Z,60.59
2022-12-28T15:43:09.803Z,62.54
2022-12-28T15:48:12.936Z,64.06
2022-12-28T15:53:18.156Z,65.99
2022-12-28T15:58:22.362Z,67.76
2022-12-28T16:03:26.599Z,67.84
2022-12-28T16:08:30.327Z,68.25
2022-12-28T16:13:34.359Z,68.73
2022-12-28T16:18:38.887Z,68.62
2022-12-28T16:23:44.452Z,68.65
2022-12-28T16:28:48.855Z,69.01
2022-12-28T16:34:03.853Z,69.10
2022-12-28T16:39:12.843Z,68.15
2022-12-28T16:44:19.477Z,67.42
2022-12-28T16:49:22.819Z,66.75
2022-12-28T16:54:27.506Z,65.22
2022-12-28T16:59:30.655Z,66.10
2022-12-28T17:04:33.824Z,66.84
2022-12-28T17:09:37.798Z,67.04
2022-12-28T17:14:41.192Z,67.56
2022-12-28T17:19:45.309Z,68.48
2022-12-28T17:24:49.063Z,68.48
2022-12-28T17:29:52.609Z,69.37
2022-12-28T17:34:56.206Z,70.44
2022-12-28T17:39:59.796Z,70.97
2022-12-28T17:45:09.183Z,71.36
2022-12-28T17:50:15.163Z,71.56
2022-12-28T17:55:18.405Z,71.40
2022-12-28T18:00:22.665Z,71.63
2022-12-28T18:05:26.442Z,71.95
2022-12-28T18:10:30.597Z,72.13
2022-12-28T18:15:34.529Z,72.48
2022-12-28T18:20:38.293Z,72.74
2022-12-28T18:25:41.417Z,73.36
2022-12-28T18:30:45.082Z,72.80
2022-12-28T18:35:48.364Z,72.06
2022-12-28T18:40:57.037Z,71.41
2022-12-28T18:46:03.331Z,71.46
2022-12-28T18:51:10.081Z,72.12
2022-12-28T18:56:19.248Z,72.62
2022-12-28T19:02:04.701Z,73.14
2022-12-28T19:06:48.769Z,74.03
2022-12-28T19:11:53.062Z,74.60
2022-12-28T19:16:56.636Z,74.69
2022-12-28T19:21:59.672Z,75.13
2022-12-28T19:27:02.743Z,75.25
2022-12-28T19:32:06.148Z,75.65
2022-12-28T19:37:09.262Z,76.10
2022-12-28T19:42:17.018Z,75.97
2022-12-28T19:47:20.308Z,76.27
2022-12-28T19:52:23.499Z,76.38
2022-12-28T19:57:27.088Z,77.17
2022-12-28T20:02:30.969Z,77.48
2022-12-28T20:07:39.000Z,78.13
2022-12-28T20:12:42.163Z,78.56
2022-12-28T20:17:47.677Z,79.20
2022-12-28T20:22:51.444Z,79.90
2022-12-28T20:27:55.178Z,79.87
2022-12-28T20:32:58.735Z,79.99
2022-12-28T20:38:02.749Z,81.28
2022-12-28T20:43:25.056Z,81.07
2022-12-28T20:48:29.121Z,81.51
2022-12-28T20:53:34.016Z,82.22
2022-12-28T20:58:39.931Z,82.66
2022-12-28T21:03:45.064Z,83.27
2022-12-28T21:08:49.534Z,83.36
2022-12-28T21:13:52.642Z,83.39
2022-12-28T21:18:56.650Z,83.20
2022-12-28T21:24:02.018Z,83.94
2022-12-28T21:29:06.390Z,83.13
2022-12-28T21:34:09.946Z,83.10
2022-12-28T21:39:13.410Z,84.94
2022-12-28T21:44:22.349Z,85.55
2022-12-28T21:49:26.095Z,86.30
2022-12-28T21:54:29.955Z,86.31
2022-12-28T21:59:33.646Z,87.62
2022-12-28T22:05:02.176Z,88.69
2022-12-28T22:10:25.226Z,89.60
2022-12-28T22:15:47.590Z,89.82
2022-12-28T22:20:51.265Z,90.16
2022-12-28T22:25:54.913Z,90.93
2022-12-28T22:30:58.549Z,91.43
2022-12-28T22:36:11.413Z,92.02
2022-12-28T22:41:14.988Z,92.47
2022-12-28T22:46:19.415Z,92.53
2022-12-28T22:51:23.708Z,93.01
2022-12-28T22:56:27.306Z,92.97
2022-12-28T23:01:33.611Z,93.58
2022-12-28T23:06:37.477Z,93.69
2022-12-28T23:11:40.560Z,93.65
2022-12-28T23:16:44.883Z,93.82
2022-12-28T23:22:07.181Z,93.98
2022-12-28T23:27:20.305Z,94.01
2022-12-28T23:32:24.193Z,93.67
2022-12-28T23:37:27.970Z,93.76
2022-12-28T23:42:31.605Z,94.26
2022-12-28T23:47:36.129Z,94.41
2022-12-28T23:52:40.370Z,94.39
2022-12-28T23:57:44.003Z,94.28
